Prairie City, South Dakota
Current Conditions -  °F | °C
As of 12:53 AM on Saturday 20 Dec 2014 (Local Time) from KHEI Reporting Station
Clear Clear  
Wind Chill: 20°   Ceiling: Unl
Heat Index: 20°   Visibility: 10mi
Dew Point: 16°   Wind: 0mph
Humidity: 85%   Direction: NA
Pressure: 29.89"   Gusts: NA
Location:  45.53°N, 102.81°W
Report Text: KHEI 200753Z AUTO 00000KT 10SM CLR M07/M09 A2989 RMK AO2 SLP149 I1000 T10671089
Loading
Personal Weather Stations






























Interactive Weather Map New forecast layout! Learn more

10-Day Weather Forecast

Advertisements
Track Severe Weather on mobile